createdAt,value
2022-07-26T00:01:12.690Z,74261.72
2022-07-26T00:02:47.830Z,74251.84
2022-07-26T00:04:24.548Z,74247.88
2022-07-26T00:05:59.697Z,74247.88
2022-07-26T00:07:36.487Z,74247.88
2022-07-26T00:09:11.277Z,74251.84
2022-07-26T00:10:47.722Z,74247.88
2022-07-26T00:12:24.894Z,74255.78
2022-07-26T00:13:59.134Z,74245.91
2022-07-26T00:15:33.090Z,74249.88
2022-07-26T00:17:10.682Z,74249.88
2022-07-26T00:18:44.889Z,74245.91
2022-07-26T00:20:19.628Z,74239.97
2022-07-26T00:22:14.027Z,74238.00
2022-07-26T00:23:48.882Z,74228.13
2022-07-26T00:25:23.291Z,74226.16
2022-07-26T00:26:57.700Z,74232.06
2022-07-26T00:28:32.538Z,74230.09
2022-07-26T00:30:07.782Z,74226.16
2022-07-26T00:31:42.351Z,74220.22
2022-07-26T00:33:17.154Z,74214.28
2022-07-26T00:34:55.039Z,74220.22
2022-07-26T00:36:30.655Z,74243.94
2022-07-26T00:38:10.186Z,74251.84
2022-07-26T00:39:44.439Z,74243.94
2022-07-26T00:41:19.600Z,74243.94
2022-07-26T00:42:57.604Z,74236.03
2022-07-26T00:44:41.482Z,74228.13
2022-07-26T00:46:18.068Z,74224.19
2022-07-26T00:47:53.203Z,74220.22
2022-07-26T00:49:28.335Z,74212.31
2022-07-26T00:51:02.468Z,74200.47
2022-07-26T00:52:39.527Z,74196.50
2022-07-26T00:54:14.515Z,74188.59
2022-07-26T00:55:50.624Z,74176.75
2022-07-26T00:57:27.761Z,74170.81
2022-07-26T00:59:02.252Z,74160.94
2022-07-26T01:00:37.639Z,74155.00
2022-07-26T01:02:12.640Z,74153.03
2022-07-26T01:03:47.273Z,74145.13
2022-07-26T01:05:22.829Z,74155.00
2022-07-26T01:07:01.527Z,74158.97
2022-07-26T01:08:39.329Z,74153.03
2022-07-26T01:10:13.874Z,74155.00
2022-07-26T01:11:48.369Z,74151.06
2022-07-26T01:13:23.612Z,74151.06
2022-07-26T01:14:58.157Z,74133.28
2022-07-26T01:16:32.667Z,74133.28
2022-07-26T01:18:13.042Z,74123.38
2022-07-26T01:19:52.032Z,74123.38
2022-07-26T01:21:32.797Z,74113.50
2022-07-26T01:23:08.542Z,74113.50
2022-07-26T01:24:45.782Z,74121.41
2022-07-26T01:26:21.181Z,74113.50
2022-07-26T01:27:59.891Z,74107.56
2022-07-26T01:29:36.832Z,74117.47
2022-07-26T01:31:11.399Z,74117.47
2022-07-26T01:32:46.177Z,74117.47
2022-07-26T01:34:23.308Z,74121.41
2022-07-26T01:35:58.019Z,74172.78
2022-07-26T01:37:32.537Z,74210.34
2022-07-26T01:39:07.191Z,74228.13
2022-07-26T01:40:41.438Z,74243.94
2022-07-26T01:42:15.543Z,74245.91
2022-07-26T01:43:50.269Z,74249.88
2022-07-26T01:45:24.912Z,74238.00
2022-07-26T01:46:59.269Z,74236.03
2022-07-26T01:48:34.174Z,74228.13
2022-07-26T01:50:09.022Z,74234.06
2022-07-26T01:51:43.999Z,74224.19
2022-07-26T01:53:20.124Z,74220.22
2022-07-26T01:54:57.031Z,74228.13
2022-07-26T01:56:34.392Z,74241.97
2022-07-26T01:58:08.885Z,74243.94
2022-07-26T01:59:43.245Z,74236.03
2022-07-26T02:01:38.409Z,74232.06
2022-07-26T02:03:12.405Z,74245.91
2022-07-26T02:05:03.678Z,74228.13
2022-07-26T02:06:38.338Z,74236.03
2022-07-26T02:08:14.639Z,74224.19
2022-07-26T02:09:48.753Z,74214.28
2022-07-26T02:11:23.513Z,74208.38
2022-07-26T02:12:57.733Z,74200.47
2022-07-26T02:14:51.360Z,74200.47
2022-07-26T02:16:25.395Z,74196.50
2022-07-26T02:17:59.114Z,74194.53
2022-07-26T02:19:33.616Z,74180.69
2022-07-26T02:21:08.658Z,74184.66
2022-07-26T02:22:42.935Z,74182.69
2022-07-26T02:24:16.656Z,74174.78
2022-07-26T02:25:55.998Z,74166.88
2022-07-26T02:27:29.336Z,74153.03
2022-07-26T02:29:03.129Z,74149.06
2022-07-26T02:30:37.129Z,74141.16
2022-07-26T02:32:13.210Z,74153.03
2022-07-26T02:33:47.182Z,74143.16
2022-07-26T02:35:21.054Z,74137.22
2022-07-26T02:36:55.133Z,74129.31
2022-07-26T02:38:28.388Z,74125.38
2022-07-26T02:40:03.385Z,74125.38
2022-07-26T02:41:37.153Z,74113.50
2022-07-26T02:43:11.046Z,74105.59
2022-07-26T02:44:44.607Z,74109.56
2022-07-26T02:46:17.920Z,74101.66
2022-07-26T02:47:52.003Z,74107.56
2022-07-26T02:49:25.548Z,74097.69
2022-07-26T02:50:58.760Z,74087.81
2022-07-26T02:52:32.208Z,74077.94
2022-07-26T02:54:06.217Z,74064.09
2022-07-26T02:55:39.953Z,74054.22
2022-07-26T02:57:15.107Z,74034.47
2022-07-26T02:58:48.755Z,74022.59
2022-07-26T03:00:23.387Z,74018.66
2022-07-26T03:01:57.236Z,74014.69
2022-07-26T03:03:31.122Z,74010.75
2022-07-26T03:05:11.290Z,74002.84
2022-07-26T03:06:44.801Z,74018.66
2022-07-26T03:08:18.102Z,74006.78
2022-07-26T03:09:51.780Z,73991.00
2022-07-26T03:11:25.956Z,73983.09
2022-07-26T03:13:00.088Z,73973.19
2022-07-26T03:14:35.492Z,73953.44
2022-07-26T03:16:09.595Z,73943.56
2022-07-26T03:17:43.265Z,73904.03
2022-07-26T03:19:16.627Z,73844.75
2022-07-26T03:20:50.542Z,73813.13
2022-07-26T03:22:26.665Z,73785.47
2022-07-26T03:24:00.391Z,73779.53
2022-07-26T03:25:33.715Z,73773.63
2022-07-26T03:27:11.195Z,73742.00
2022-07-26T03:28:45.103Z,73688.66
2022-07-26T03:30:24.723Z,73603.69
2022-07-26T03:31:59.745Z,73516.75
2022-07-26T03:33:33.286Z,73536.50
2022-07-26T03:35:23.123Z,73554.28
2022-07-26T03:36:56.426Z,73437.72
2022-07-26T03:38:29.912Z,73342.88
2022-07-26T03:40:03.106Z,73200.63
2022-07-26T03:41:36.611Z,73082.06
2022-07-26T03:43:09.964Z,73062.31
2022-07-26T03:44:43.770Z,72975.38
2022-07-26T03:46:17.254Z,72924.03
2022-07-26T03:47:51.483Z,72884.50
2022-07-26T03:49:25.098Z,72813.41
2022-07-26T03:51:01.654Z,72854.88
2022-07-26T03:52:35.780Z,72892.41
2022-07-26T03:54:09.899Z,72979.34
2022-07-26T03:56:02.529Z,73024.78
2022-07-26T03:57:36.021Z,73007.00
2022-07-26T03:59:10.546Z,72872.66
2022-07-26T04:00:43.768Z,72789.69
2022-07-26T04:02:17.178Z,72690.91
2022-07-26T04:03:50.768Z,72588.19
2022-07-26T04:05:26.279Z,72440.03
2022-07-26T04:07:03.249Z,72564.50
2022-07-26T04:08:40.332Z,72594.13
2022-07-26T04:10:16.324Z,72434.13
2022-07-26T04:11:51.987Z,72331.41
2022-07-26T04:13:25.683Z,72402.50
2022-07-26T04:14:59.136Z,72388.69
2022-07-26T04:16:32.811Z,72459.78
2022-07-26T04:18:06.422Z,72343.25
2022-07-26T04:19:40.601Z,72386.72
2022-07-26T04:21:14.026Z,72323.50
2022-07-26T04:22:47.479Z,72299.78
2022-07-26T04:24:21.389Z,72204.97
2022-07-26T04:25:59.283Z,72204.97
2022-07-26T04:27:32.950Z,72204.97
2022-07-26T04:29:06.584Z,72210.91
2022-07-26T04:30:41.022Z,72230.66
2022-07-26T04:32:14.184Z,72434.13
2022-07-26T04:33:47.435Z,72337.31
2022-07-26T04:35:23.808Z,72440.03
2022-07-26T04:36:57.152Z,72503.25
2022-07-26T04:38:31.259Z,72489.41
2022-07-26T04:40:04.869Z,72364.97
2022-07-26T04:41:38.214Z,72402.50
2022-07-26T04:43:15.354Z,72335.34
2022-07-26T04:44:51.780Z,72361.03
2022-07-26T04:46:25.761Z,72289.91
2022-07-26T04:47:59.128Z,72280.03
2022-07-26T04:49:32.810Z,72240.53
2022-07-26T04:51:06.344Z,72230.66
2022-07-26T04:52:40.038Z,72199.06
2022-07-26T04:54:13.666Z,72191.16
2022-07-26T04:55:47.274Z,72204.97
2022-07-26T04:57:21.027Z,72234.59
2022-07-26T04:58:54.795Z,72191.16
2022-07-26T05:00:28.319Z,72169.44
2022-07-26T05:02:01.681Z,72264.22
2022-07-26T05:03:35.476Z,72234.59
2022-07-26T05:05:09.500Z,72274.13
2022-07-26T05:06:43.708Z,72274.13
2022-07-26T05:08:17.316Z,72287.94
2022-07-26T05:09:55.089Z,72386.72
2022-07-26T05:11:28.674Z,72404.47
2022-07-26T05:13:04.662Z,72406.47
2022-07-26T05:14:40.793Z,72299.78
2022-07-26T05:16:14.334Z,72201.03
2022-07-26T05:17:50.527Z,72177.31
2022-07-26T05:19:24.593Z,72106.22
2022-07-26T05:21:01.242Z,72037.09
2022-07-26T05:22:35.377Z,72054.88
2022-07-26T05:24:08.843Z,72082.53
2022-07-26T05:25:42.514Z,72082.53
2022-07-26T05:27:16.029Z,72161.53
2022-07-26T05:28:52.378Z,72191.16
2022-07-26T05:30:32.299Z,72228.69
2022-07-26T05:32:05.677Z,72256.34
2022-07-26T05:33:41.671Z,72216.84
2022-07-26T05:35:15.385Z,72232.63
2022-07-26T05:36:48.788Z,72171.41
2022-07-26T05:38:22.037Z,72197.06
2022-07-26T05:39:56.308Z,72189.19
2022-07-26T05:41:29.782Z,72149.69
2022-07-26T05:43:04.171Z,72102.28
2022-07-26T05:44:42.741Z,72193.13
2022-07-26T05:46:19.528Z,72106.22
2022-07-26T05:47:53.125Z,72149.69
2022-07-26T05:49:26.667Z,72124.00
2022-07-26T05:51:13.390Z,72323.50
2022-07-26T05:52:47.155Z,72270.16
2022-07-26T05:54:23.080Z,72363.00
2022-07-26T05:55:56.886Z,72400.53
2022-07-26T05:57:30.330Z,72357.06
2022-07-26T05:59:03.874Z,72382.75
2022-07-26T06:00:39.778Z,72293.88
2022-07-26T06:02:13.207Z,72189.19
2022-07-26T06:03:46.715Z,72210.91
2022-07-26T06:05:23.828Z,72153.63
2022-07-26T06:06:57.608Z,72256.34
2022-07-26T06:08:31.029Z,72234.59
2022-07-26T06:10:04.761Z,72339.28
2022-07-26T06:11:38.206Z,72295.84
2022-07-26T06:13:11.233Z,72242.50
2022-07-26T06:14:44.191Z,72293.88
2022-07-26T06:16:18.062Z,72293.88
2022-07-26T06:17:54.146Z,72293.88
2022-07-26T06:19:27.681Z,72210.91
2022-07-26T06:21:02.663Z,72266.22
2022-07-26T06:22:36.503Z,72276.09
2022-07-26T06:24:10.613Z,72248.44
2022-07-26T06:25:44.056Z,72197.06
2022-07-26T06:27:17.259Z,72260.28
2022-07-26T06:28:51.916Z,72232.63
2022-07-26T06:30:27.765Z,72191.16
2022-07-26T06:32:01.054Z,72282.00
2022-07-26T06:33:34.157Z,72335.34
2022-07-26T06:35:07.780Z,72361.03
2022-07-26T06:36:41.012Z,72347.19
2022-07-26T06:38:13.939Z,72402.50
2022-07-26T06:39:47.208Z,72449.91
2022-07-26T06:41:20.518Z,72449.91
2022-07-26T06:42:54.027Z,72422.25
2022-07-26T06:44:27.631Z,72459.78
2022-07-26T06:46:00.907Z,72449.91
2022-07-26T06:47:35.863Z,72457.81
2022-07-26T06:49:09.588Z,72440.03
2022-07-26T06:50:42.745Z,72363.00
2022-07-26T06:52:15.889Z,72380.78
2022-07-26T06:53:49.119Z,72434.13
2022-07-26T06:55:22.383Z,72521.03
2022-07-26T06:56:55.486Z,72503.25
2022-07-26T06:58:28.863Z,72521.03
2022-07-26T07:00:02.122Z,72501.28
2022-07-26T07:01:58.138Z,72477.56
2022-07-26T07:03:30.257Z,72481.53
2022-07-26T07:05:03.886Z,72463.75
2022-07-26T07:06:37.440Z,72438.06
2022-07-26T07:08:11.770Z,72434.13
2022-07-26T07:09:44.867Z,72406.47
2022-07-26T07:11:18.006Z,72465.72
2022-07-26T07:12:53.193Z,72493.38
2022-07-26T07:14:26.260Z,72515.09
2022-07-26T07:15:59.476Z,72521.03
2022-07-26T07:17:36.098Z,72586.22
2022-07-26T07:19:09.706Z,72578.31
2022-07-26T07:20:42.624Z,72548.69
2022-07-26T07:22:15.758Z,72521.03
2022-07-26T07:23:49.253Z,72534.84
2022-07-26T07:25:30.371Z,72499.31
2022-07-26T07:27:04.706Z,72605.97
2022-07-26T07:28:40.073Z,72607.94
2022-07-26T07:30:13.602Z,72647.44
2022-07-26T07:32:03.674Z,72613.88
2022-07-26T07:33:52.547Z,72596.09
2022-07-26T07:35:31.927Z,72576.34
2022-07-26T07:37:05.406Z,72576.34
2022-07-26T07:38:42.857Z,72592.13
2022-07-26T07:40:16.185Z,72639.56
2022-07-26T07:41:51.128Z,72643.50
2022-07-26T07:43:24.339Z,72633.63
2022-07-26T07:44:57.397Z,72605.97
2022-07-26T07:46:30.855Z,72580.28
2022-07-26T07:48:04.219Z,72532.88
2022-07-26T07:49:37.694Z,72540.78
2022-07-26T07:51:10.448Z,72584.25
2022-07-26T07:52:44.943Z,72602.03
2022-07-26T07:54:18.910Z,72556.59
2022-07-26T07:55:55.870Z,72568.44
2022-07-26T07:57:29.518Z,72627.69
2022-07-26T07:59:02.763Z,72645.47
2022-07-26T08:00:36.133Z,72570.41
2022-07-26T08:02:13.150Z,72546.72
2022-07-26T08:03:48.180Z,72536.84
2022-07-26T08:05:28.142Z,72580.28
2022-07-26T08:07:01.821Z,72647.44
2022-07-26T08:08:35.734Z,72635.59
2022-07-26T08:10:09.541Z,72600.03
2022-07-26T08:11:43.143Z,72607.94
2022-07-26T08:13:16.604Z,72607.94
2022-07-26T08:14:54.318Z,72584.25
2022-07-26T08:16:27.528Z,72548.69
2022-07-26T08:18:00.616Z,72564.50
2022-07-26T08:19:41.724Z,72609.91
2022-07-26T08:21:15.766Z,72528.94
2022-07-26T08:22:48.742Z,72544.72
2022-07-26T08:24:22.206Z,72530.91
2022-07-26T08:25:58.693Z,72596.09
2022-07-26T08:27:40.685Z,72524.97
2022-07-26T08:29:17.173Z,72552.63
2022-07-26T08:30:50.286Z,72542.75
2022-07-26T08:32:23.400Z,72526.94
2022-07-26T08:33:56.607Z,72558.56
2022-07-26T08:35:30.203Z,72598.06
2022-07-26T08:37:18.952Z,72621.78
2022-07-26T08:38:52.845Z,72592.13
2022-07-26T08:40:26.128Z,72596.09
2022-07-26T08:41:59.531Z,72578.31
2022-07-26T08:43:32.909Z,72544.72
2022-07-26T08:45:27.762Z,72600.03
2022-07-26T08:47:01.263Z,72611.91
2022-07-26T08:48:38.322Z,72604.00
2022-07-26T08:50:11.969Z,72598.06
2022-07-26T08:51:45.307Z,72592.13
2022-07-26T08:53:21.546Z,72649.44
2022-07-26T08:54:57.679Z,72667.22
2022-07-26T08:56:31.095Z,72675.13
2022-07-26T08:58:04.887Z,72623.75
2022-07-26T08:59:38.327Z,72663.25
2022-07-26T09:01:13.491Z,72647.44
2022-07-26T09:02:47.387Z,72635.59
2022-07-26T09:04:31.747Z,72641.53
2022-07-26T09:06:16.452Z,72592.13
2022-07-26T09:07:49.685Z,72550.66
2022-07-26T09:09:23.074Z,72602.03
2022-07-26T09:10:56.634Z,72623.75
2022-07-26T09:12:30.961Z,72580.28
2022-07-26T09:14:06.327Z,72588.19
2022-07-26T09:15:39.667Z,72604.00
2022-07-26T09:17:13.673Z,72613.88
2022-07-26T09:18:46.977Z,72596.09
2022-07-26T09:20:27.886Z,72584.25
2022-07-26T09:22:12.559Z,72604.00
2022-07-26T09:23:45.734Z,72546.72
2022-07-26T09:25:23.180Z,72568.44
2022-07-26T09:27:00.169Z,72578.31
2022-07-26T09:28:33.563Z,72568.44
2022-07-26T09:30:08.207Z,72556.59
2022-07-26T09:31:41.914Z,72481.53
2022-07-26T09:33:15.354Z,72445.97
2022-07-26T09:34:59.182Z,72438.06
2022-07-26T09:36:50.176Z,72451.88
2022-07-26T09:38:23.357Z,72481.53
2022-07-26T09:40:01.042Z,72497.31
2022-07-26T09:41:35.821Z,72526.94
2022-07-26T09:43:10.144Z,72540.78
2022-07-26T09:44:48.789Z,72572.38
2022-07-26T09:46:23.190Z,72548.69
2022-07-26T09:47:56.727Z,72532.88
2022-07-26T09:49:40.272Z,72524.97
2022-07-26T09:51:17.105Z,72521.03
2022-07-26T09:53:02.573Z,72590.16
2022-07-26T09:54:38.542Z,72572.38
2022-07-26T09:56:11.923Z,72556.59
2022-07-26T09:57:44.951Z,72552.63
2022-07-26T09:59:20.058Z,72568.44
2022-07-26T10:00:53.477Z,72592.13
2022-07-26T10:02:28.476Z,72544.72
2022-07-26T10:04:02.949Z,72532.88
2022-07-26T10:05:36.827Z,72562.50
2022-07-26T10:07:10.970Z,72598.06
2022-07-26T10:08:44.549Z,72526.94
2022-07-26T10:10:39.430Z,72517.06
2022-07-26T10:12:14.577Z,72505.22
2022-07-26T10:13:47.732Z,72473.63
2022-07-26T10:15:39.570Z,72534.84
2022-07-26T10:17:34.969Z,72457.81
2022-07-26T10:19:09.123Z,72434.13
2022-07-26T10:20:43.842Z,72416.34
2022-07-26T10:22:31.313Z,72467.69
2022-07-26T10:24:05.147Z,72501.28
2022-07-26T10:25:38.385Z,72495.34
2022-07-26T10:27:31.567Z,72487.44
2022-07-26T10:29:17.275Z,72501.28
2022-07-26T10:30:50.718Z,72493.38
2022-07-26T10:32:24.052Z,72475.59
2022-07-26T10:33:58.012Z,72501.28
2022-07-26T10:35:46.645Z,72485.47
2022-07-26T10:37:24.759Z,72491.41
2022-07-26T10:39:01.095Z,72517.06
2022-07-26T10:40:35.263Z,72493.38
2022-07-26T10:42:11.761Z,72509.19
2022-07-26T10:44:05.065Z,72465.72
2022-07-26T10:45:39.044Z,72471.66
2022-07-26T10:47:16.382Z,72414.34
2022-07-26T10:48:59.824Z,72430.16
2022-07-26T10:50:33.981Z,72434.13
2022-07-26T10:52:09.145Z,72445.97
2022-07-26T10:53:44.226Z,72410.41
2022-07-26T10:55:17.903Z,72445.97
2022-07-26T10:56:50.904Z,72426.22
2022-07-26T10:58:25.363Z,72426.22
2022-07-26T10:59:59.254Z,72422.25
2022-07-26T11:01:39.346Z,72445.97
2022-07-26T11:03:14.890Z,72438.06
2022-07-26T11:05:02.381Z,72442.00
2022-07-26T11:06:36.482Z,72485.47
2022-07-26T11:08:10.748Z,72445.97
2022-07-26T11:09:46.875Z,72422.25
2022-07-26T11:11:30.865Z,72418.31
2022-07-26T11:13:11.716Z,72384.72
2022-07-26T11:14:48.298Z,72396.59
2022-07-26T11:16:26.710Z,72339.28
2022-07-26T11:18:13.469Z,72418.31
2022-07-26T11:19:46.914Z,72394.59
2022-07-26T11:21:20.762Z,72380.78
2022-07-26T11:22:53.724Z,72355.09
2022-07-26T11:24:27.640Z,72311.63
2022-07-26T11:26:07.116Z,72357.06
2022-07-26T11:27:58.582Z,72382.75
2022-07-26T11:29:38.216Z,72376.81
2022-07-26T11:31:14.806Z,72363.00
2022-07-26T11:32:53.426Z,72368.94
2022-07-26T11:34:27.706Z,72380.78
2022-07-26T11:36:01.040Z,72388.69
2022-07-26T11:37:34.649Z,72382.75
2022-07-26T11:39:13.635Z,72366.94
2022-07-26T11:40:47.552Z,72370.91
2022-07-26T11:42:24.853Z,72392.63
2022-07-26T11:44:02.236Z,72376.81
2022-07-26T11:45:35.901Z,72386.72
2022-07-26T11:47:13.879Z,72323.50
2022-07-26T11:48:48.186Z,72309.66
2022-07-26T11:50:22.909Z,72305.72
2022-07-26T11:51:57.637Z,72351.16
2022-07-26T11:53:35.775Z,72337.31
2022-07-26T11:55:10.722Z,72315.59
2022-07-26T11:56:51.935Z,72307.69
2022-07-26T11:58:25.606Z,72272.13
2022-07-26T11:59:58.922Z,72319.53
2022-07-26T12:01:32.829Z,72333.38
2022-07-26T12:03:06.462Z,72363.00
2022-07-26T12:04:41.162Z,72359.06
2022-07-26T12:06:17.252Z,72355.09
2022-07-26T12:08:09.435Z,72384.72
2022-07-26T12:09:47.621Z,72442.00
2022-07-26T12:11:21.430Z,72475.59
2022-07-26T12:13:11.669Z,72473.63
2022-07-26T12:14:44.978Z,72457.81
2022-07-26T12:16:36.986Z,72449.91
2022-07-26T12:18:10.042Z,72477.56
2022-07-26T12:19:44.012Z,72499.31
2022-07-26T12:21:18.097Z,72497.31
2022-07-26T12:23:00.775Z,72497.31
2022-07-26T12:24:38.855Z,72479.53
2022-07-26T12:26:22.840Z,72477.56
2022-07-26T12:27:56.365Z,72483.50
2022-07-26T12:29:36.614Z,72477.56
2022-07-26T12:31:25.990Z,72477.56
2022-07-26T12:33:02.681Z,72509.19
2022-07-26T12:34:36.630Z,72503.25
2022-07-26T12:36:27.861Z,72479.53
2022-07-26T12:38:02.901Z,72434.13
2022-07-26T12:39:36.405Z,72465.72
2022-07-26T12:41:13.819Z,72444.00
2022-07-26T12:42:50.246Z,72420.28
2022-07-26T12:44:24.229Z,72434.13
2022-07-26T12:45:57.412Z,72447.94
2022-07-26T12:47:31.312Z,72495.34
2022-07-26T12:49:07.946Z,72503.25
2022-07-26T12:50:46.168Z,72497.31
2022-07-26T12:52:22.404Z,72501.28
2022-07-26T12:53:56.270Z,72509.19
2022-07-26T12:55:30.477Z,72475.59
2022-07-26T12:57:11.329Z,72493.38
2022-07-26T12:58:46.376Z,72469.66
2022-07-26T13:00:23.959Z,72489.41
2022-07-26T13:02:00.296Z,72444.00
2022-07-26T13:03:34.631Z,72471.66
2022-07-26T13:05:11.547Z,72471.66
2022-07-26T13:06:48.132Z,72457.81
2022-07-26T13:08:24.053Z,72455.84
2022-07-26T13:10:29.903Z,72477.56
2022-07-26T13:11:51.315Z,72499.31
2022-07-26T13:13:27.339Z,72505.22
2022-07-26T13:15:01.073Z,72501.28
2022-07-26T13:16:44.337Z,72485.47
2022-07-26T13:18:17.775Z,72511.16
2022-07-26T13:19:57.228Z,72515.09
2022-07-26T13:21:33.364Z,72526.94
2022-07-26T13:23:15.849Z,72509.19
2022-07-26T13:24:56.426Z,72532.88
2022-07-26T13:26:35.651Z,72540.78
2022-07-26T13:28:10.568Z,72546.72
2022-07-26T13:29:46.843Z,72560.53
2022-07-26T13:31:23.234Z,72570.41
2022-07-26T13:32:56.747Z,72592.13
2022-07-26T13:34:35.477Z,72588.19
2022-07-26T13:36:08.901Z,72590.16
2022-07-26T13:37:42.112Z,72604.00
2022-07-26T13:39:15.751Z,72600.03
2022-07-26T13:40:54.435Z,72617.81
2022-07-26T13:42:30.721Z,72639.56
2022-07-26T13:44:04.157Z,72686.97
2022-07-26T13:45:40.796Z,72698.81
2022-07-26T13:47:17.440Z,72708.69
2022-07-26T13:49:01.028Z,72718.56
2022-07-26T13:50:35.157Z,72722.53
2022-07-26T13:52:12.158Z,72750.19
2022-07-26T13:53:55.596Z,72724.50
2022-07-26T13:55:29.184Z,72728.44
2022-07-26T13:57:04.406Z,72730.44
2022-07-26T13:58:38.609Z,72744.25
2022-07-26T14:00:13.385Z,72748.22
2022-07-26T14:01:47.212Z,72771.91
2022-07-26T14:03:21.232Z,72797.59
2022-07-26T14:04:57.962Z,72789.69
2022-07-26T14:06:31.820Z,72789.69
2022-07-26T14:08:07.873Z,72801.53
2022-07-26T14:09:41.469Z,72801.53
2022-07-26T14:11:17.116Z,72807.47
2022-07-26T14:12:54.116Z,72821.28
2022-07-26T14:14:27.335Z,72835.13
2022-07-26T14:16:01.492Z,72841.06
2022-07-26T14:17:34.777Z,72845.00
2022-07-26T14:19:08.599Z,72848.97
2022-07-26T14:20:48.819Z,72868.72
2022-07-26T14:22:23.698Z,72880.56
2022-07-26T14:23:57.745Z,72890.44
2022-07-26T14:25:32.040Z,72924.03
2022-07-26T14:27:06.647Z,72914.16
2022-07-26T14:28:39.990Z,72912.19
2022-07-26T14:30:13.950Z,72922.06
2022-07-26T14:31:47.619Z,72922.06
2022-07-26T14:33:21.221Z,72924.03
2022-07-26T14:34:59.125Z,72929.94
2022-07-26T14:36:37.399Z,72943.78
2022-07-26T14:38:11.390Z,72957.63
2022-07-26T14:39:45.052Z,72967.50
2022-07-26T14:41:18.459Z,72961.56
2022-07-26T14:42:52.050Z,72959.59
2022-07-26T14:44:26.993Z,72987.25
2022-07-26T14:46:04.081Z,72987.25
2022-07-26T14:47:37.926Z,72985.28
2022-07-26T14:49:11.376Z,72983.28
2022-07-26T14:51:08.510Z,72979.34
2022-07-26T14:52:43.043Z,72995.16
2022-07-26T14:54:18.985Z,72999.09
2022-07-26T14:55:55.032Z,73003.06
2022-07-26T14:57:28.537Z,73014.91
2022-07-26T14:59:02.109Z,73022.81
2022-07-26T15:00:36.922Z,73020.84
2022-07-26T15:02:15.570Z,73030.72
2022-07-26T15:03:50.613Z,73034.66
2022-07-26T15:05:25.683Z,73038.63
2022-07-26T15:06:59.132Z,73062.31
2022-07-26T15:08:33.144Z,73101.84
2022-07-26T15:10:07.353Z,73149.25
2022-07-26T15:11:40.789Z,73184.81
2022-07-26T15:13:16.655Z,73210.50
2022-07-26T15:14:51.579Z,73194.69
2022-07-26T15:16:27.539Z,73200.63
2022-07-26T15:18:10.725Z,73232.22
2022-07-26T15:19:44.401Z,73248.03
2022-07-26T15:21:18.451Z,73255.94
2022-07-26T15:23:00.555Z,73261.88
2022-07-26T15:24:40.262Z,73252.00
2022-07-26T15:26:14.016Z,73253.97
2022-07-26T15:27:56.283Z,73259.88
2022-07-26T15:29:29.507Z,73269.78
2022-07-26T15:31:08.105Z,73273.72
2022-07-26T15:32:42.350Z,73291.50
2022-07-26T15:34:16.138Z,73275.69
2022-07-26T15:35:51.060Z,73283.59
2022-07-26T15:37:25.472Z,73291.50
2022-07-26T15:39:05.220Z,73295.44
2022-07-26T15:40:52.285Z,73293.47
2022-07-26T15:42:25.972Z,73303.34
2022-07-26T15:44:10.303Z,73323.13
2022-07-26T15:45:51.947Z,73317.19
2022-07-26T15:47:54.003Z,73315.22
2022-07-26T15:49:33.400Z,73319.16
2022-07-26T15:51:09.257Z,73336.94
2022-07-26T15:52:44.210Z,73338.91
2022-07-26T15:54:17.923Z,73360.66
2022-07-26T15:55:51.352Z,73362.63
2022-07-26T15:57:25.002Z,73362.63
2022-07-26T15:58:58.570Z,73382.38
2022-07-26T16:00:36.078Z,73396.22
2022-07-26T16:02:12.850Z,73406.09
2022-07-26T16:03:46.531Z,73417.94
2022-07-26T16:05:23.234Z,73429.81
2022-07-26T16:06:58.313Z,73437.72
2022-07-26T16:08:31.671Z,73431.78
2022-07-26T16:10:07.350Z,73433.75
2022-07-26T16:11:46.371Z,73449.56
2022-07-26T16:13:25.953Z,73461.41
2022-07-26T16:15:02.024Z,73469.31
2022-07-26T16:16:40.239Z,73477.22
2022-07-26T16:18:15.918Z,73489.09
2022-07-26T16:19:52.613Z,73493.03
2022-07-26T16:21:26.401Z,73497.00
2022-07-26T16:23:02.832Z,73502.91
2022-07-26T16:24:40.503Z,73500.94
2022-07-26T16:26:17.947Z,73498.97
2022-07-26T16:27:56.526Z,73500.94
2022-07-26T16:29:30.882Z,73500.94
2022-07-26T16:31:11.336Z,73497.00
2022-07-26T16:32:47.737Z,73504.91
2022-07-26T16:34:21.532Z,73506.88
2022-07-26T16:35:55.061Z,73504.91
2022-07-26T16:37:29.185Z,73504.91
2022-07-26T16:39:03.543Z,73506.88
2022-07-26T16:40:49.784Z,73500.94
2022-07-26T16:42:26.532Z,73512.78
2022-07-26T16:44:03.459Z,73512.78
2022-07-26T16:45:37.319Z,73514.78
2022-07-26T16:47:11.160Z,73520.69
2022-07-26T16:48:50.545Z,73528.59
2022-07-26T16:50:27.220Z,73532.56
2022-07-26T16:52:01.285Z,73540.47
2022-07-26T16:53:39.815Z,73544.41
2022-07-26T16:55:16.101Z,73556.25
2022-07-26T16:56:50.007Z,73562.19
2022-07-26T16:58:23.551Z,73566.16
2022-07-26T16:59:59.757Z,73570.09
2022-07-26T17:01:33.631Z,73566.16
2022-07-26T17:03:07.121Z,73568.13
2022-07-26T17:04:40.541Z,73574.03
2022-07-26T17:06:14.541Z,73574.03
2022-07-26T17:07:50.733Z,73593.81
2022-07-26T17:09:24.044Z,73599.72
2022-07-26T17:10:58.623Z,73613.56
2022-07-26T17:12:32.005Z,73621.47
2022-07-26T17:14:06.219Z,73631.34
2022-07-26T17:15:39.832Z,73635.31
2022-07-26T17:17:13.148Z,73647.16
2022-07-26T17:18:46.136Z,73647.16
2022-07-26T17:20:19.470Z,73655.06
2022-07-26T17:21:53.010Z,73655.06
2022-07-26T17:23:26.539Z,73655.06
2022-07-26T17:24:59.974Z,73661.00
2022-07-26T17:26:33.243Z,73662.97
2022-07-26T17:28:11.097Z,73666.91
2022-07-26T17:29:44.390Z,73672.84
2022-07-26T17:31:17.752Z,73672.84
2022-07-26T17:32:51.416Z,73680.75
2022-07-26T17:34:25.022Z,73694.59
2022-07-26T17:36:02.169Z,73724.22
2022-07-26T17:37:37.814Z,73738.06
2022-07-26T17:39:15.014Z,73730.16
2022-07-26T17:40:49.231Z,73708.41
2022-07-26T17:42:22.779Z,73698.53
2022-07-26T17:43:56.275Z,73694.59
2022-07-26T17:45:30.164Z,73696.56
2022-07-26T17:47:17.265Z,73696.56
2022-07-26T17:49:00.597Z,73680.75
2022-07-26T17:50:38.461Z,73686.69
2022-07-26T17:52:12.623Z,73666.91
2022-07-26T17:53:52.699Z,73666.91
2022-07-26T17:55:26.659Z,73666.91
2022-07-26T17:57:02.660Z,73676.78
2022-07-26T17:58:36.162Z,73684.69
2022-07-26T18:00:09.909Z,73682.72
2022-07-26T18:01:53.441Z,73682.72
2022-07-26T18:03:27.392Z,73682.72
2022-07-26T18:05:00.814Z,73694.59
2022-07-26T18:06:34.284Z,73694.59
2022-07-26T18:08:07.646Z,73708.41
2022-07-26T18:09:43.821Z,73714.34
2022-07-26T18:11:16.901Z,73708.41
2022-07-26T18:12:50.065Z,73710.38
2022-07-26T18:14:23.619Z,73716.31
2022-07-26T18:15:56.857Z,73720.25
2022-07-26T18:17:30.530Z,73720.25
2022-07-26T18:19:04.615Z,73714.34
2022-07-26T18:20:38.475Z,73716.31
2022-07-26T18:22:11.449Z,73718.28
2022-07-26T18:24:00.629Z,73712.38
2022-07-26T18:25:39.042Z,73724.22
2022-07-26T18:27:15.842Z,73726.19
2022-07-26T18:28:49.847Z,73730.16
2022-07-26T18:30:23.226Z,73726.19
2022-07-26T18:32:00.869Z,73726.19
2022-07-26T18:33:37.125Z,73726.19
2022-07-26T18:35:13.996Z,73724.22
2022-07-26T18:36:47.181Z,73734.09
2022-07-26T18:38:20.278Z,73742.00
2022-07-26T18:39:58.072Z,73755.84
2022-07-26T18:41:34.322Z,73751.88
2022-07-26T18:43:07.899Z,73759.78
2022-07-26T18:44:41.095Z,73773.63
2022-07-26T18:46:14.379Z,73803.25
2022-07-26T18:47:50.632Z,73830.94